sensor_id;sensor_type;location;lat;lon;timestamp;temperature;humidity
22098;DHT22;11215;51.938;8.464;2022-12-18T00:01:05;-4.80;68.30
22098;DHT22;11215;51.938;8.464;2022-12-18T00:03:35;-4.80;68.40
22098;DHT22;11215;51.938;8.464;2022-12-18T00:06:01;-4.80;68.30
22098;DHT22;11215;51.938;8.464;2022-12-18T00:08:28;-4.80;68.40
22098;DHT22;11215;51.938;8.464;2022-12-18T00:10:54;-4.80;68.40
22098;DHT22;11215;51.938;8.464;2022-12-18T00:13:20;-4.80;68.40
22098;DHT22;11215;51.938;8.464;2022-12-18T00:15:45;-4.80;68.40
22098;DHT22;11215;51.938;8.464;2022-12-18T00:18:11;-4.80;68.40
22098;DHT22;11215;51.938;8.464;2022-12-18T00:20:38;-4.80;68.40
22098;DHT22;11215;51.938;8.464;2022-12-18T00:23:05;-4.80;68.50
22098;DHT22;11215;51.938;8.464;2022-12-18T00:25:35;-4.80;68.50
22098;DHT22;11215;51.938;8.464;2022-12-18T00:28:02;-4.80;68.50
22098;DHT22;11215;51.938;8.464;2022-12-18T00:30:28;-4.80;68.50
22098;DHT22;11215;51.938;8.464;2022-12-18T00:32:53;-4.80;68.40
22098;DHT22;11215;51.938;8.464;2022-12-18T00:35:19;-4.80;68.40
22098;DHT22;11215;51.938;8.464;2022-12-18T00:37:45;-4.80;68.40
22098;DHT22;11215;51.938;8.464;2022-12-18T00:40:11;-4.80;68.40
22098;DHT22;11215;51.938;8.464;2022-12-18T00:42:37;-4.80;68.50
22098;DHT22;11215;51.938;8.464;2022-12-18T00:45:29;-4.80;68.70
22098;DHT22;11215;51.938;8.464;2022-12-18T00:47:56;-4.80;68.80
22098;DHT22;11215;51.938;8.464;2022-12-18T00:50:23;-4.80;68.80
22098;DHT22;11215;51.938;8.464;2022-12-18T00:52:49;-4.80;68.90
22098;DHT22;11215;51.938;8.464;2022-12-18T00:55:15;-4.80;68.80
22098;DHT22;11215;51.938;8.464;2022-12-18T00:57:41;-4.90;68.80
22098;DHT22;11215;51.938;8.464;2022-12-18T01:00:11;-4.80;68.80
22098;DHT22;11215;51.938;8.464;2022-12-18T01:02:37;-4.80;68.90
22098;DHT22;11215;51.938;8.464;2022-12-18T01:05:03;-4.80;68.90
22098;DHT22;11215;51.938;8.464;2022-12-18T01:07:29;-4.80;69.00
22098;DHT22;11215;51.938;8.464;2022-12-18T01:09:55;-4.80;69.00
22098;DHT22;11215;51.938;8.464;2022-12-18T01:12:20;-4.80;68.90
22098;DHT22;11215;51.938;8.464;2022-12-18T01:14:46;-4.80;68.90
22098;DHT22;11215;51.938;8.464;2022-12-18T01:17:12;-4.80;69.00
22098;DHT22;11215;51.938;8.464;2022-12-18T01:19:37;-4.80;69.00
22098;DHT22;11215;51.938;8.464;2022-12-18T01:22:03;-4.80;69.10
22098;DHT22;11215;51.938;8.464;2022-12-18T01:24:28;-4.80;69.20
22098;DHT22;11215;51.938;8.464;2022-12-18T01:26:54;-4.80;69.20
22098;DHT22;11215;51.938;8.464;2022-12-18T01:29:19;-4.80;69.20
22098;DHT22;11215;51.938;8.464;2022-12-18T01:31:45;-4.80;69.20
22098;DHT22;11215;51.938;8.464;2022-12-18T01:34:11;-4.80;69.20
22098;DHT22;11215;51.938;8.464;2022-12-18T01:36:37;-4.80;69.20
22098;DHT22;11215;51.938;8.464;2022-12-18T01:39:10;-4.80;69.30
22098;DHT22;11215;51.938;8.464;2022-12-18T01:41:36;-4.80;69.10
22098;DHT22;11215;51.938;8.464;2022-12-18T01:47:18;-4.80;69.10
22098;DHT22;11215;51.938;8.464;2022-12-18T01:49:44;-4.80;69.20
22098;DHT22;11215;51.938;8.464;2022-12-18T01:52:10;-4.80;69.20
22098;DHT22;11215;51.938;8.464;2022-12-18T01:54:35;-4.80;69.30
22098;DHT22;11215;51.938;8.464;2022-12-18T01:57:01;-4.80;69.30
22098;DHT22;11215;51.938;8.464;2022-12-18T01:59:28;-4.80;69.30
22098;DHT22;11215;51.938;8.464;2022-12-18T02:01:55;-4.80;69.30
22098;DHT22;11215;51.938;8.464;2022-12-18T02:04:23;-4.80;69.30
22098;DHT22;11215;51.938;8.464;2022-12-18T02:07:16;-4.80;69.30
22098;DHT22;11215;51.938;8.464;2022-12-18T02:12:43;-4.80;69.10
22098;DHT22;11215;51.938;8.464;2022-12-18T02:15:20;-4.90;69.00
22098;DHT22;11215;51.938;8.464;2022-12-18T02:17:59;-4.90;69.00
22098;DHT22;11215;51.938;8.464;2022-12-18T02:20:52;-4.90;69.00
22098;DHT22;11215;51.938;8.464;2022-12-18T02:23:56;-4.80;69.00
22098;DHT22;11215;51.938;8.464;2022-12-18T02:26:25;-4.90;69.00
22098;DHT22;11215;51.938;8.464;2022-12-18T02:29:33;-4.90;69.10
22098;DHT22;11215;51.938;8.464;2022-12-18T02:32:02;-4.90;69.00
22098;DHT22;11215;51.938;8.464;2022-12-18T02:34:33;-4.90;69.00
22098;DHT22;11215;51.938;8.464;2022-12-18T02:37:03;-4.90;69.00
22098;DHT22;11215;51.938;8.464;2022-12-18T02:39:33;-4.90;69.10
22098;DHT22;11215;51.938;8.464;2022-12-18T02:42:00;-4.90;69.00
22098;DHT22;11215;51.938;8.464;2022-12-18T02:44:27;-4.90;69.00
22098;DHT22;11215;51.938;8.464;2022-12-18T02:46:53;-4.90;68.90
22098;DHT22;11215;51.938;8.464;2022-12-18T02:49:36;-4.90;69.00
22098;DHT22;11215;51.938;8.464;2022-12-18T02:57:48;-5.00;69.00
22098;DHT22;11215;51.938;8.464;2022-12-18T03:00:34;-5.00;69.00
22098;DHT22;11215;51.938;8.464;2022-12-18T03:03:21;-5.00;69.00
22098;DHT22;11215;51.938;8.464;2022-12-18T03:05:53;-5.00;69.00
22098;DHT22;11215;51.938;8.464;2022-12-18T03:08:23;-5.00;69.10
22098;DHT22;11215;51.938;8.464;2022-12-18T03:13:37;-5.00;69.30
22098;DHT22;11215;51.938;8.464;2022-12-18T03:16:07;-5.00;69.40
22098;DHT22;11215;51.938;8.464;2022-12-18T03:18:42;-5.00;69.40
22098;DHT22;11215;51.938;8.464;2022-12-18T03:21:11;-5.00;69.50
22098;DHT22;11215;51.938;8.464;2022-12-18T03:23:42;-5.00;69.40
22098;DHT22;11215;51.938;8.464;2022-12-18T03:26:12;-4.90;69.40
22098;DHT22;11215;51.938;8.464;2022-12-18T03:28:43;-4.90;69.40
22098;DHT22;11215;51.938;8.464;2022-12-18T03:31:12;-4.90;69.40
22098;DHT22;11215;51.938;8.464;2022-12-18T03:36:08;-4.90;69.50
22098;DHT22;11215;51.938;8.464;2022-12-18T03:38:33;-4.90;69.60
22098;DHT22;11215;51.938;8.464;2022-12-18T03:41:19;-4.90;69.60
22098;DHT22;11215;51.938;8.464;2022-12-18T03:49:53;-4.90;69.70
22098;DHT22;11215;51.938;8.464;2022-12-18T03:52:24;-4.90;69.70
22098;DHT22;11215;51.938;8.464;2022-12-18T03:54:52;-4.90;70.50
22098;DHT22;11215;51.938;8.464;2022-12-18T03:57:22;-4.90;69.60
22098;DHT22;11215;51.938;8.464;2022-12-18T03:59:54;-4.90;69.60
22098;DHT22;11215;51.938;8.464;2022-12-18T04:02:21;-4.90;69.60
22098;DHT22;11215;51.938;8.464;2022-12-18T04:04:50;-4.90;69.50
22098;DHT22;11215;51.938;8.464;2022-12-18T04:07:17;-4.90;69.50
22098;DHT22;11215;51.938;8.464;2022-12-18T04:09:45;-4.90;69.60
22098;DHT22;11215;51.938;8.464;2022-12-18T04:12:11;-4.90;69.50
22098;DHT22;11215;51.938;8.464;2022-12-18T04:14:37;-4.90;69.60
22098;DHT22;11215;51.938;8.464;2022-12-18T04:17:03;-4.90;69.60
22098;DHT22;11215;51.938;8.464;2022-12-18T04:19:28;-5.00;69.50
22098;DHT22;11215;51.938;8.464;2022-12-18T04:21:54;-4.90;69.60
22098;DHT22;11215;51.938;8.464;2022-12-18T04:24:20;-5.00;69.60
22098;DHT22;11215;51.938;8.464;2022-12-18T04:26:45;-4.90;69.80
22098;DHT22;11215;51.938;8.464;2022-12-18T04:29:11;-4.90;69.90
22098;DHT22;11215;51.938;8.464;2022-12-18T04:31:37;-4.90;69.90
22098;DHT22;11215;51.938;8.464;2022-12-18T04:34:03;-4.90;69.90
22098;DHT22;11215;51.938;8.464;2022-12-18T04:36:28;-4.90;69.90
22098;DHT22;11215;51.938;8.464;2022-12-18T04:38:55;-4.90;69.80
22098;DHT22;11215;51.938;8.464;2022-12-18T04:41:20;-4.90;69.80
22098;DHT22;11215;51.938;8.464;2022-12-18T04:43:46;-4.90;69.90
22098;DHT22;11215;51.938;8.464;2022-12-18T04:46:12;-4.90;69.90
22098;DHT22;11215;51.938;8.464;2022-12-18T04:48:38;-4.80;70.10
22098;DHT22;11215;51.938;8.464;2022-12-18T04:51:05;-4.90;70.10
22098;DHT22;11215;51.938;8.464;2022-12-18T04:53:30;-4.80;70.20
22098;DHT22;11215;51.938;8.464;2022-12-18T04:56:23;-4.80;70.30
22098;DHT22;11215;51.938;8.464;2022-12-18T04:58:49;-4.80;70.40
22098;DHT22;11215;51.938;8.464;2022-12-18T05:01:16;-4.80;70.30
22098;DHT22;11215;51.938;8.464;2022-12-18T05:03:42;-4.80;70.30
22098;DHT22;11215;51.938;8.464;2022-12-18T05:06:07;-4.80;70.30
22098;DHT22;11215;51.938;8.464;2022-12-18T05:08:33;-4.80;70.30
22098;DHT22;11215;51.938;8.464;2022-12-18T05:11:05;-4.80;70.20
22098;DHT22;11215;51.938;8.464;2022-12-18T05:13:32;-4.80;70.30
22098;DHT22;11215;51.938;8.464;2022-12-18T05:15:58;-4.80;70.40
22098;DHT22;11215;51.938;8.464;2022-12-18T05:18:24;-4.70;70.50
22098;DHT22;11215;51.938;8.464;2022-12-18T05:20:51;-4.70;70.40
22098;DHT22;11215;51.938;8.464;2022-12-18T05:23:17;-4.70;70.50
22098;DHT22;11215;51.938;8.464;2022-12-18T05:25:50;-4.70;70.60
22098;DHT22;11215;51.938;8.464;2022-12-18T05:28:15;-4.70;70.80
22098;DHT22;11215;51.938;8.464;2022-12-18T05:30:41;-4.70;70.90
22098;DHT22;11215;51.938;8.464;2022-12-18T05:33:07;-4.60;71.10
22098;DHT22;11215;51.938;8.464;2022-12-18T05:35:32;-4.60;71.10
22098;DHT22;11215;51.938;8.464;2022-12-18T05:37:58;-4.60;71.10
22098;DHT22;11215;51.938;8.464;2022-12-18T05:40:23;-4.50;71.30
22098;DHT22;11215;51.938;8.464;2022-12-18T05:42:49;-4.50;71.30
22098;DHT22;11215;51.938;8.464;2022-12-18T05:45:14;-4.50;71.30
22098;DHT22;11215;51.938;8.464;2022-12-18T05:47:40;-4.50;71.10
22098;DHT22;11215;51.938;8.464;2022-12-18T05:50:06;-4.50;71.10
22098;DHT22;11215;51.938;8.464;2022-12-18T05:52:32;-4.40;71.30
22098;DHT22;11215;51.938;8.464;2022-12-18T05:54:57;-4.40;71.20
22098;DHT22;11215;51.938;8.464;2022-12-18T05:57:24;-4.40;71.30
22098;DHT22;11215;51.938;8.464;2022-12-18T05:59:50;-4.40;71.30
22098;DHT22;11215;51.938;8.464;2022-12-18T06:02:15;-4.40;71.30
22098;DHT22;11215;51.938;8.464;2022-12-18T06:04:41;-4.40;71.40
22098;DHT22;11215;51.938;8.464;2022-12-18T06:07:07;-4.30;71.30
22098;DHT22;11215;51.938;8.464;2022-12-18T06:09:32;-4.30;71.30
22098;DHT22;11215;51.938;8.464;2022-12-18T06:11:58;-4.30;71.30
22098;DHT22;11215;51.938;8.464;2022-12-18T06:14:24;-4.30;71.20
22098;DHT22;11215;51.938;8.464;2022-12-18T06:16:50;-4.30;71.30
22098;DHT22;11215;51.938;8.464;2022-12-18T06:19:17;-4.30;71.10
22098;DHT22;11215;51.938;8.464;2022-12-18T06:21:42;-4.30;71.10
22098;DHT22;11215;51.938;8.464;2022-12-18T06:24:08;-4.30;71.80
22098;DHT22;11215;51.938;8.464;2022-12-18T06:26:34;-4.30;70.80
22098;DHT22;11215;51.938;8.464;2022-12-18T06:29:01;-4.30;70.80
22098;DHT22;11215;51.938;8.464;2022-12-18T06:31:27;-4.30;70.80
22098;DHT22;11215;51.938;8.464;2022-12-18T06:33:53;-4.40;70.80
22098;DHT22;11215;51.938;8.464;2022-12-18T06:36:18;-4.40;70.80
22098;DHT22;11215;51.938;8.464;2022-12-18T06:38:45;-4.40;70.90
22098;DHT22;11215;51.938;8.464;2022-12-18T06:41:15;-4.40;71.20
22098;DHT22;11215;51.938;8.464;2022-12-18T06:43:42;-4.40;71.00
22098;DHT22;11215;51.938;8.464;2022-12-18T06:46:08;-4.30;71.10
22098;DHT22;11215;51.938;8.464;2022-12-18T06:48:34;-4.30;71.10
22098;DHT22;11215;51.938;8.464;2022-12-18T06:51:00;-4.30;71.10
22098;DHT22;11215;51.938;8.464;2022-12-18T06:53:26;-4.30;71.20
22098;DHT22;11215;51.938;8.464;2022-12-18T06:55:52;-4.30;71.20
22098;DHT22;11215;51.938;8.464;2022-12-18T06:58:18;-4.30;71.20
22098;DHT22;11215;51.938;8.464;2022-12-18T07:00:43;-4.30;71.20
22098;DHT22;11215;51.938;8.464;2022-12-18T07:03:09;-4.30;71.20
22098;DHT22;11215;51.938;8.464;2022-12-18T07:05:34;-4.30;71.30
22098;DHT22;11215;51.938;8.464;2022-12-18T07:08:04;-4.30;71.30
22098;DHT22;11215;51.938;8.464;2022-12-18T07:10:30;-4.30;71.20
22098;DHT22;11215;51.938;8.464;2022-12-18T07:12:56;-4.20;71.30
22098;DHT22;11215;51.938;8.464;2022-12-18T07:15:21;-4.30;71.30
22098;DHT22;11215;51.938;8.464;2022-12-18T07:17:47;-4.20;71.40
22098;DHT22;11215;51.938;8.464;2022-12-18T07:20:12;-4.20;71.40
22098;DHT22;11215;51.938;8.464;2022-12-18T07:22:38;-4.20;71.50
22098;DHT22;11215;51.938;8.464;2022-12-18T07:25:04;-4.20;71.40
22098;DHT22;11215;51.938;8.464;2022-12-18T07:27:29;-4.20;71.50
22098;DHT22;11215;51.938;8.464;2022-12-18T07:29:55;-4.20;71.40
22098;DHT22;11215;51.938;8.464;2022-12-18T07:32:21;-4.20;71.40
22098;DHT22;11215;51.938;8.464;2022-12-18T07:34:46;-4.10;71.50
22098;DHT22;11215;51.938;8.464;2022-12-18T07:37:12;-4.10;71.60
22098;DHT22;11215;51.938;8.464;2022-12-18T07:39:37;-4.10;71.60
22098;DHT22;11215;51.938;8.464;2022-12-18T07:42:03;-4.10;71.60
22098;DHT22;11215;51.938;8.464;2022-12-18T07:44:47;-4.10;71.60
22098;DHT22;11215;51.938;8.464;2022-12-18T07:47:12;-4.10;71.70
22098;DHT22;11215;51.938;8.464;2022-12-18T07:49:38;-4.10;71.70
22098;DHT22;11215;51.938;8.464;2022-12-18T07:52:04;-4.10;71.70
22098;DHT22;11215;51.938;8.464;2022-12-18T07:54:29;-4.00;71.80
22098;DHT22;11215;51.938;8.464;2022-12-18T07:56:55;-4.00;71.80
22098;DHT22;11215;51.938;8.464;2022-12-18T07:59:20;-4.00;71.90
22098;DHT22;11215;51.938;8.464;2022-12-18T08:01:46;-4.00;72.00
22098;DHT22;11215;51.938;8.464;2022-12-18T08:04:11;-3.90;72.30
22098;DHT22;11215;51.938;8.464;2022-12-18T08:06:37;-3.90;73.30
22098;DHT22;11215;51.938;8.464;2022-12-18T08:09:03;-3.80;72.90
22098;DHT22;11215;51.938;8.464;2022-12-18T08:11:29;-3.70;73.30
22098;DHT22;11215;51.938;8.464;2022-12-18T08:13:55;-3.70;73.70
22098;DHT22;11215;51.938;8.464;2022-12-18T08:16:21;-3.50;74.80
22098;DHT22;11215;51.938;8.464;2022-12-18T08:18:47;-3.50;74.10
22098;DHT22;11215;51.938;8.464;2022-12-18T08:21:24;-3.40;74.20
22098;DHT22;11215;51.938;8.464;2022-12-18T08:23:53;-3.30;74.50
22098;DHT22;11215;51.938;8.464;2022-12-18T08:26:20;-3.20;74.40
22098;DHT22;11215;51.938;8.464;2022-12-18T08:28:46;-3.10;74.40
22098;DHT22;11215;51.938;8.464;2022-12-18T08:31:11;-3.00;74.40
22098;DHT22;11215;51.938;8.464;2022-12-18T08:33:38;-2.90;74.40
22098;DHT22;11215;51.938;8.464;2022-12-18T08:36:04;-2.80;74.40
22098;DHT22;11215;51.938;8.464;2022-12-18T08:38:32;-2.70;74.30
22098;DHT22;11215;51.938;8.464;2022-12-18T08:41:06;-2.60;74.40
22098;DHT22;11215;51.938;8.464;2022-12-18T08:43:32;-2.50;74.40
22098;DHT22;11215;51.938;8.464;2022-12-18T08:46:20;-2.40;74.50
22098;DHT22;11215;51.938;8.464;2022-12-18T08:48:46;-2.30;74.40
22098;DHT22;11215;51.938;8.464;2022-12-18T08:51:12;-2.20;74.40
22098;DHT22;11215;51.938;8.464;2022-12-18T08:53:38;-2.20;74.30
22098;DHT22;11215;51.938;8.464;2022-12-18T08:56:12;-2.10;74.20
22098;DHT22;11215;51.938;8.464;2022-12-18T08:58:37;-2.00;74.40
22098;DHT22;11215;51.938;8.464;2022-12-18T09:01:05;-1.90;74.10
22098;DHT22;11215;51.938;8.464;2022-12-18T09:03:32;-1.90;74.20
22098;DHT22;11215;51.938;8.464;2022-12-18T09:05:58;-1.80;74.10
22098;DHT22;11215;51.938;8.464;2022-12-18T09:08:23;-1.70;74.10
22098;DHT22;11215;51.938;8.464;2022-12-18T09:10:50;-1.60;74.10
22098;DHT22;11215;51.938;8.464;2022-12-18T09:13:16;-1.60;74.10
22098;DHT22;11215;51.938;8.464;2022-12-18T09:15:43;-1.50;74.10
22098;DHT22;11215;51.938;8.464;2022-12-18T09:18:11;-1.40;74.10
22098;DHT22;11215;51.938;8.464;2022-12-18T09:20:37;-1.40;74.00
22098;DHT22;11215;51.938;8.464;2022-12-18T09:23:04;-1.30;73.80
22098;DHT22;11215;51.938;8.464;2022-12-18T09:25:30;-1.20;73.80
22098;DHT22;11215;51.938;8.464;2022-12-18T09:28:01;-1.10;73.80
22098;DHT22;11215;51.938;8.464;2022-12-18T09:30:27;-1.10;73.60
22098;DHT22;11215;51.938;8.464;2022-12-18T09:32:53;-1.00;73.50
22098;DHT22;11215;51.938;8.464;2022-12-18T09:35:18;-1.00;73.40
22098;DHT22;11215;51.938;8.464;2022-12-18T09:37:44;-0.90;73.30
22098;DHT22;11215;51.938;8.464;2022-12-18T09:40:15;-0.90;73.30
22098;DHT22;11215;51.938;8.464;2022-12-18T09:42:46;-0.80;73.30
22098;DHT22;11215;51.938;8.464;2022-12-18T09:45:15;-0.80;73.20
22098;DHT22;11215;51.938;8.464;2022-12-18T09:47:43;-0.70;73.20
22098;DHT22;11215;51.938;8.464;2022-12-18T09:52:50;-0.60;73.10
22098;DHT22;11215;51.938;8.464;2022-12-18T09:57:56;-0.50;73.00
22098;DHT22;11215;51.938;8.464;2022-12-18T10:00:25;-0.50;72.90
22098;DHT22;11215;51.938;8.464;2022-12-18T10:02:53;-0.40;72.80
22098;DHT22;11215;51.938;8.464;2022-12-18T10:05:57;-0.40;72.70
22098;DHT22;11215;51.938;8.464;2022-12-18T10:08:56;-0.40;72.70
22098;DHT22;11215;51.938;8.464;2022-12-18T10:11:48;-0.30;72.60
22098;DHT22;11215;51.938;8.464;2022-12-18T10:16:56;-0.10;72.50
22098;DHT22;11215;51.938;8.464;2022-12-18T10:27:54;0.20;72.20
22098;DHT22;11215;51.938;8.464;2022-12-18T10:30:23;0.10;72.20
22098;DHT22;11215;51.938;8.464;2022-12-18T10:32:49;0.30;72.20
22098;DHT22;11215;51.938;8.464;2022-12-18T10:35:26;0.30;72.00
22098;DHT22;11215;51.938;8.464;2022-12-18T10:38:02;0.40;72.10
22098;DHT22;11215;51.938;8.464;2022-12-18T10:40:28;0.50;72.00
22098;DHT22;11215;51.938;8.464;2022-12-18T10:43:12;0.50;71.80
22098;DHT22;11215;51.938;8.464;2022-12-18T10:45:38;0.60;71.80
22098;DHT22;11215;51.938;8.464;2022-12-18T10:48:04;0.60;71.60
22098;DHT22;11215;51.938;8.464;2022-12-18T10:50:47;0.70;71.50
22098;DHT22;11215;51.938;8.464;2022-12-18T10:53:19;0.80;71.40
22098;DHT22;11215;51.938;8.464;2022-12-18T10:55:46;0.80;71.10
22098;DHT22;11215;51.938;8.464;2022-12-18T10:58:33;0.90;70.90
22098;DHT22;11215;51.938;8.464;2022-12-18T11:01:17;0.90;70.70
22098;DHT22;11215;51.938;8.464;2022-12-18T11:04:08;1.00;70.60
22098;DHT22;11215;51.938;8.464;2022-12-18T11:06:33;1.10;70.60
22098;DHT22;11215;51.938;8.464;2022-12-18T11:09:06;1.10;70.50
22098;DHT22;11215;51.938;8.464;2022-12-18T11:11:54;1.10;70.20
22098;DHT22;11215;51.938;8.464;2022-12-18T11:14:34;1.20;70.20
22098;DHT22;11215;51.938;8.464;2022-12-18T11:17:31;1.20;70.10
22098;DHT22;11215;51.938;8.464;2022-12-18T11:20:26;1.20;69.70
22098;DHT22;11215;51.938;8.464;2022-12-18T11:23:00;1.30;69.60
22098;DHT22;11215;51.938;8.464;2022-12-18T11:25:26;1.30;69.70
22098;DHT22;11215;51.938;8.464;2022-12-18T11:28:01;1.40;69.50
22098;DHT22;11215;51.938;8.464;2022-12-18T11:30:34;1.40;69.40
22098;DHT22;11215;51.938;8.464;2022-12-18T11:33:14;1.50;69.40
22098;DHT22;11215;51.938;8.464;2022-12-18T11:35:58;1.40;69.30
22098;DHT22;11215;51.938;8.464;2022-12-18T11:38:40;1.50;69.10
22098;DHT22;11215;51.938;8.464;2022-12-18T11:44:13;1.60;68.90
22098;DHT22;11215;51.938;8.464;2022-12-18T11:49:35;1.70;68.90
22098;DHT22;11215;51.938;8.464;2022-12-18T11:52:42;1.70;68.50
22098;DHT22;11215;51.938;8.464;2022-12-18T11:55:13;1.80;68.20
22098;DHT22;11215;51.938;8.464;2022-12-18T11:57:52;1.80;68.50
22098;DHT22;11215;51.938;8.464;2022-12-18T12:00:20;1.90;68.60
22098;DHT22;11215;51.938;8.464;2022-12-18T12:11:11;2.00;67.50
22098;DHT22;11215;51.938;8.464;2022-12-18T12:13:48;2.10;67.60
22098;DHT22;11215;51.938;8.464;2022-12-18T12:16:29;2.10;67.80
22098;DHT22;11215;51.938;8.464;2022-12-18T12:21:41;2.20;67.30
22098;DHT22;11215;51.938;8.464;2022-12-18T12:29:19;2.30;67.10
22098;DHT22;11215;51.938;8.464;2022-12-18T12:37:25;2.40;67.00
22098;DHT22;11215;51.938;8.464;2022-12-18T12:39:55;2.40;66.60
22098;DHT22;11215;51.938;8.464;2022-12-18T12:42:41;2.40;66.70
22098;DHT22;11215;51.938;8.464;2022-12-18T12:45:33;2.50;66.00
22098;DHT22;11215;51.938;8.464;2022-12-18T12:48:02;2.50;66.60
22098;DHT22;11215;51.938;8.464;2022-12-18T12:50:33;2.50;66.30
22098;DHT22;11215;51.938;8.464;2022-12-18T12:53:06;2.50;66.10
22098;DHT22;11215;51.938;8.464;2022-12-18T12:55:33;2.50;65.70
22098;DHT22;11215;51.938;8.464;2022-12-18T13:00:49;2.60;65.50
22098;DHT22;11215;51.938;8.464;2022-12-18T13:03:41;2.60;65.60
22098;DHT22;11215;51.938;8.464;2022-12-18T13:14:40;2.60;65.00
22098;DHT22;11215;51.938;8.464;2022-12-18T13:20:34;2.60;64.90
22098;DHT22;11215;51.938;8.464;2022-12-18T13:32:21;2.70;64.60
22098;DHT22;11215;51.938;8.464;2022-12-18T13:44:39;2.80;64.60
22098;DHT22;11215;51.938;8.464;2022-12-18T13:50:27;2.80;64.40
22098;DHT22;11215;51.938;8.464;2022-12-18T13:56:44;2.80;63.80
22098;DHT22;11215;51.938;8.464;2022-12-18T14:02:31;2.80;63.50
22098;DHT22;11215;51.938;8.464;2022-12-18T14:08:21;2.90;63.50
22098;DHT22;11215;51.938;8.464;2022-12-18T14:24:18;2.80;63.30
22098;DHT22;11215;51.938;8.464;2022-12-18T14:47:14;2.90;62.80
22098;DHT22;11215;51.938;8.464;2022-12-18T14:53:02;2.90;62.50
22098;DHT22;11215;51.938;8.464;2022-12-18T14:59:01;2.90;62.50
22098;DHT22;11215;51.938;8.464;2022-12-18T15:05:20;2.90;62.80
22098;DHT22;11215;51.938;8.464;2022-12-18T15:07:55;3.00;63.30
22098;DHT22;11215;51.938;8.464;2022-12-18T15:10:26;2.90;62.70
22098;DHT22;11215;51.938;8.464;2022-12-18T15:16:49;2.90;62.20
22098;DHT22;11215;51.938;8.464;2022-12-18T15:22:47;2.90;62.40
22098;DHT22;11215;51.938;8.464;2022-12-18T15:28:35;2.80;60.90
22098;DHT22;11215;51.938;8.464;2022-12-18T15:34:27;2.80;61.70
22098;DHT22;11215;51.938;8.464;2022-12-18T15:40:20;2.90;62.00
22098;DHT22;11215;51.938;8.464;2022-12-18T15:51:59;2.90;62.20
22098;DHT22;11215;51.938;8.464;2022-12-18T15:57:47;2.80;61.90
22098;DHT22;11215;51.938;8.464;2022-12-18T16:03:34;2.80;61.90
22098;DHT22;11215;51.938;8.464;2022-12-18T16:09:22;2.80;61.90
22098;DHT22;11215;51.938;8.464;2022-12-18T16:15:14;2.80;62.00
22098;DHT22;11215;51.938;8.464;2022-12-18T16:21:03;2.70;62.00
22098;DHT22;11215;51.938;8.464;2022-12-18T16:30:18;2.70;62.00
22098;DHT22;11215;51.938;8.464;2022-12-18T16:36:06;2.70;62.20
22098;DHT22;11215;51.938;8.464;2022-12-18T16:41:54;2.70;62.20
22098;DHT22;11215;51.938;8.464;2022-12-18T16:47:42;2.70;62.20
22098;DHT22;11215;51.938;8.464;2022-12-18T16:53:32;2.70;62.20
22098;DHT22;11215;51.938;8.464;2022-12-18T17:02:41;2.70;62.30
22098;DHT22;11215;51.938;8.464;2022-12-18T17:08:28;2.70;62.40
22098;DHT22;11215;51.938;8.464;2022-12-18T17:14:18;2.70;62.20
22098;DHT22;11215;51.938;8.464;2022-12-18T17:20:07;2.70;62.30
22098;DHT22;11215;51.938;8.464;2022-12-18T17:35:57;2.70;62.40
22098;DHT22;11215;51.938;8.464;2022-12-18T17:41:45;2.70;62.30
22098;DHT22;11215;51.938;8.464;2022-12-18T17:47:33;2.70;62.00
22098;DHT22;11215;51.938;8.464;2022-12-18T17:53:21;2.70;62.30
22098;DHT22;11215;51.938;8.464;2022-12-18T17:59:08;2.80;62.10
22098;DHT22;11215;51.938;8.464;2022-12-18T18:04:56;2.70;62.00
22098;DHT22;11215;51.938;8.464;2022-12-18T18:10:43;2.70;61.80
22098;DHT22;11215;51.938;8.464;2022-12-18T18:22:19;2.60;61.10
22098;DHT22;11215;51.938;8.464;2022-12-18T18:31:30;2.70;61.80
22098;DHT22;11215;51.938;8.464;2022-12-18T18:37:17;2.70;61.80
22098;DHT22;11215;51.938;8.464;2022-12-18T18:43:05;2.70;61.60
22098;DHT22;11215;51.938;8.464;2022-12-18T18:48:54;2.70;61.70
22098;DHT22;11215;51.938;8.464;2022-12-18T18:51:22;2.60;62.00
22098;DHT22;11215;51.938;8.464;2022-12-18T19:00:22;2.60;61.80
22098;DHT22;11215;51.938;8.464;2022-12-18T19:06:26;2.60;61.90
22098;DHT22;11215;51.938;8.464;2022-12-18T19:15:36;2.50;62.00
22098;DHT22;11215;51.938;8.464;2022-12-18T19:21:24;2.50;62.20
22098;DHT22;11215;51.938;8.464;2022-12-18T19:37:10;2.40;62.60
22098;DHT22;11215;51.938;8.464;2022-12-18T19:42:57;2.40;62.60
22098;DHT22;11215;51.938;8.464;2022-12-18T19:48:46;2.40;62.70
22098;DHT22;11215;51.938;8.464;2022-12-18T19:54:33;2.40;62.70
22098;DHT22;11215;51.938;8.464;2022-12-18T20:00:21;2.40;62.90
22098;DHT22;11215;51.938;8.464;2022-12-18T20:09:30;2.40;63.20
22098;DHT22;11215;51.938;8.464;2022-12-18T20:15:18;2.40;63.30
22098;DHT22;11215;51.938;8.464;2022-12-18T20:21:06;2.30;63.00
22098;DHT22;11215;51.938;8.464;2022-12-18T20:26:53;2.30;63.30
22098;DHT22;11215;51.938;8.464;2022-12-18T20:32:41;2.30;63.30
22098;DHT22;11215;51.938;8.464;2022-12-18T20:38:29;2.30;63.30
22098;DHT22;11215;51.938;8.464;2022-12-18T20:44:17;2.30;63.30
22098;DHT22;11215;51.938;8.464;2022-12-18T20:50:06;2.30;63.60
22098;DHT22;11215;51.938;8.464;2022-12-18T20:52:32;2.30;63.70
22098;DHT22;11215;51.938;8.464;2022-12-18T20:58:19;2.30;63.70
22098;DHT22;11215;51.938;8.464;2022-12-18T21:04:07;2.30;63.70
22098;DHT22;11215;51.938;8.464;2022-12-18T21:09:54;2.30;63.80
22098;DHT22;11215;51.938;8.464;2022-12-18T21:15:42;2.30;63.80
22098;DHT22;11215;51.938;8.464;2022-12-18T21:21:30;2.30;63.90
22098;DHT22;11215;51.938;8.464;2022-12-18T21:37:09;2.30;64.10
22098;DHT22;11215;51.938;8.464;2022-12-18T21:42:57;2.30;64.30
22098;DHT22;11215;51.938;8.464;2022-12-18T21:55:27;2.30;64.40
22098;DHT22;11215;51.938;8.464;2022-12-18T22:01:18;2.30;64.50
22098;DHT22;11215;51.938;8.464;2022-12-18T22:07:06;2.30;65.20
22098;DHT22;11215;51.938;8.464;2022-12-18T22:12:53;2.40;64.60
22098;DHT22;11215;51.938;8.464;2022-12-18T22:18:41;2.40;64.60
22098;DHT22;11215;51.938;8.464;2022-12-18T22:24:29;2.40;64.60
22098;DHT22;11215;51.938;8.464;2022-12-18T22:33:54;2.50;64.70
22098;DHT22;11215;51.938;8.464;2022-12-18T22:39:41;2.50;64.80
22098;DHT22;11215;51.938;8.464;2022-12-18T22:45:43;2.50;64.80
22098;DHT22;11215;51.938;8.464;2022-12-18T22:51:33;2.50;65.10
22098;DHT22;11215;51.938;8.464;2022-12-18T22:57:23;2.60;65.50
22098;DHT22;11215;51.938;8.464;2022-12-18T23:06:39;2.60;65.80
22098;DHT22;11215;51.938;8.464;2022-12-18T23:12:27;2.60;66.20
22098;DHT22;11215;51.938;8.464;2022-12-18T23:18:14;2.60;66.50
22098;DHT22;11215;51.938;8.464;2022-12-18T23:24:02;2.60;66.70
22098;DHT22;11215;51.938;8.464;2022-12-18T23:39:39;2.70;67.30
22098;DHT22;11215;51.938;8.464;2022-12-18T23:45:27;2.70;67.50
22098;DHT22;11215;51.938;8.464;2022-12-18T23:51:16;2.70;67.80
22098;DHT22;11215;51.938;8.464;2022-12-18T23:57:03;2.80;68.10
